Delray Beach, FL (33448)

6:27 PM EDT on June 03, 2015 (GMT -0400)
Danny B at Four Seasons | | Change Station
CLOSE
Current Station
Personal Weather Station
Location: Delray Beach, FL
Elevation: 23 ft
Nearby Weather Stations

Elev 23 ft 26.46 °N, 80.20 °W | Updated 8 minutes ago

Partly Cloudy
Partly Cloudy
80.0 °F
Feels Like 84 °F
N
5.0
Wind Variable Wind from ESE

Today
High -- | Low -- °F
--% Chance of Precip.
Yesterday
High -- | Low -- °F
Precip. -- in
6:27 AM 8:10 PM
Full, 98% visible
Pressure 29.89 in
Visibility 10.0 miles
Clouds Scattered Clouds 2100 ft
Scattered Clouds 5500 ft
Mostly Cloudy 11000 ft
Heat Index 84 °F
Dew Point 73 °F
Humidity 78%
Rainfall 0.22 in
Snow Depth Not available.
UV 2 out of 12
Pollen .50 out of 12
Air Quality Not available.
Flu Activity Sporadic
METAR KPMP 032153Z 07008KT 10SM SCT021 SCT055 BKN110 27/21 A2988 RMK AO2 SLP120 T02670206

More Conditions Fewer Conditions

Pressure 29.89 in
Visibility 10.0 miles
Clouds Scattered Clouds 2100 ft
Scattered Clouds 5500 ft
Mostly Cloudy 11000 ft
Heat Index 84 °F
Dew Point 73 °F
Humidity 78%
Rainfall 0.22 in
Snow Depth Not available.
UV 2 out of 12
Pollen .50 out of 12
Air Quality Not available.
Flu Activity Sporadic
METAR KPMP 032153Z 07008KT 10SM SCT021 SCT055 BKN110 27/21 A2988 RMK AO2 SLP120 T02670206

More Conditions Fewer Conditions

10-Day Weather Forecast

×

Almanac

Astronomy

Jun. 03, 2015 Rise Set
Actual Time
Civil Twilight
Nautical Twilight
Astronomical Twilight
Moon
Length of Visible Light
Length of Day
Tomorrow will be .
, % of the Moon is Illuminated

Today's Extremes

State Highs State Lows

Community

WunderPhotos

Upload Photos

1,826,295 photos uploaded!

WunderBlogs® & News

Nearby

Air Quality

  Air Quality AQ Index Pollutant
Not available.

Snow Depth

Station Depth Elevation

Earthquake Activity

City Distance Mag. Time & Date
Minimum magnitude displayed is 2.5.

Coastal Water Temperatures

Place Temperature

Stations

Nearby Weather Stations

Station Location Temp. Windchill Dew Point Humidity Wind Precip. Elev Updated Type